sensor_id;sensor_type;location;lat;lon;timestamp;pressure;altitude;pressure_sealevel;temperature;humidity
23427;BME280;41148;45.420;10.952;2024-02-16T00:02:09;101382.78;;;7.80;93.90
23427;BME280;41148;45.420;10.952;2024-02-16T00:04:36;101374.91;;;7.72;94.27
23427;BME280;41148;45.420;10.952;2024-02-16T00:07:03;101366.94;;;7.66;94.72
23427;BME280;41148;45.420;10.952;2024-02-16T00:09:30;101370.47;;;7.67;94.88
23427;BME280;41148;45.420;10.952;2024-02-16T00:11:58;101369.59;;;7.69;95.15
23427;BME280;41148;45.420;10.952;2024-02-16T00:14:25;101365.13;;;7.76;95.18
23427;BME280;41148;45.420;10.952;2024-02-16T00:16:52;101361.53;;;7.88;94.74
23427;BME280;41148;45.420;10.952;2024-02-16T00:19:19;101355.34;;;7.81;94.46
23427;BME280;41148;45.420;10.952;2024-02-16T00:21:47;101357.19;;;7.70;95.45
23427;BME280;41148;45.420;10.952;2024-02-16T00:24:14;101353.66;;;7.74;95.61
23427;BME280;41148;45.420;10.952;2024-02-16T00:26:41;101349.13;;;7.93;94.88
23427;BME280;41148;45.420;10.952;2024-02-16T00:29:10;101347.22;;;8.10;93.14
23427;BME280;41148;45.420;10.952;2024-02-16T00:31:37;101341.03;;;8.11;92.96
23427;BME280;41148;45.420;10.952;2024-02-16T00:34:05;101333.00;;;8.19;92.16
23427;BME280;41148;45.420;10.952;2024-02-16T00:36:45;101341.78;;;8.27;92.20
23427;BME280;41148;45.420;10.952;2024-02-16T00:39:12;101337.25;;;8.44;89.90
23427;BME280;41148;45.420;10.952;2024-02-16T00:41:40;101330.34;;;8.17;91.27
23427;BME280;41148;45.420;10.952;2024-02-16T00:44:07;101333.13;;;8.02;92.37
23427;BME280;41148;45.420;10.952;2024-02-16T00:46:35;101334.06;;;7.96;93.21
23427;BME280;41148;45.420;10.952;2024-02-16T00:49:03;101336.72;;;7.93;93.30
23427;BME280;41148;45.420;10.952;2024-02-16T00:51:30;101332.41;;;7.82;94.21
23427;BME280;41148;45.420;10.952;2024-02-16T00:53:57;101330.63;;;7.82;94.29
23427;BME280;41148;45.420;10.952;2024-02-16T00:56:25;101327.94;;;7.85;94.42
23427;BME280;41148;45.420;10.952;2024-02-16T00:58:52;101335.84;;;7.94;94.33
23427;BME280;41148;45.420;10.952;2024-02-16T01:01:19;101329.56;;;8.06;93.44
23427;BME280;41148;45.420;10.952;2024-02-16T01:03:48;101327.78;;;8.08;93.36
23427;BME280;41148;45.420;10.952;2024-02-16T01:06:16;101340.16;;;8.11;92.42
23427;BME280;41148;45.420;10.952;2024-02-16T01:08:43;101329.59;;;7.98;92.57
23427;BME280;41148;45.420;10.952;2024-02-16T01:11:10;101326.06;;;7.99;92.25
23427;BME280;41148;45.420;10.952;2024-02-16T01:13:41;101333.28;;;7.82;92.83
23427;BME280;41148;45.420;10.952;2024-02-16T01:16:10;101328.84;;;7.80;92.95
23427;BME280;41148;45.420;10.952;2024-02-16T01:18:37;101327.09;;;7.77;93.67
23427;BME280;41148;45.420;10.952;2024-02-16T01:21:04;101334.13;;;7.84;93.32
23427;BME280;41148;45.420;10.952;2024-02-16T01:23:32;101337.63;;;7.91;93.08
23427;BME280;41148;45.420;10.952;2024-02-16T01:25:59;101332.31;;;7.89;93.13
23427;BME280;41148;45.420;10.952;2024-02-16T01:28:26;101338.56;;;7.85;93.24
23427;BME280;41148;45.420;10.952;2024-02-16T01:30:53;101334.16;;;7.83;93.55
23427;BME280;41148;45.420;10.952;2024-02-16T01:33:23;101329.78;;;7.74;94.12
23427;BME280;41148;45.420;10.952;2024-02-16T01:35:50;101327.94;;;7.87;94.12
23427;BME280;41148;45.420;10.952;2024-02-16T01:38:18;101328.75;;;7.95;93.43
23427;BME280;41148;45.420;10.952;2024-02-16T01:40:45;101330.63;;;7.78;93.53
23427;BME280;41148;45.420;10.952;2024-02-16T01:43:12;101328.00;;;7.71;94.33
23427;BME280;41148;45.420;10.952;2024-02-16T01:45:39;101328.00;;;7.74;94.03
23427;BME280;41148;45.420;10.952;2024-02-16T01:48:06;101331.50;;;7.83;93.78
23427;BME280;41148;45.420;10.952;2024-02-16T01:50:34;101334.09;;;7.89;93.56
23427;BME280;41148;45.420;10.952;2024-02-16T01:53:04;101334.13;;;7.84;94.52
23427;BME280;41148;45.420;10.952;2024-02-16T01:55:31;101326.22;;;7.77;94.45
23427;BME280;41148;45.420;10.952;2024-02-16T01:57:58;101332.38;;;7.85;93.88
23427;BME280;41148;45.420;10.952;2024-02-16T02:00:26;101324.44;;;7.83;93.59
23427;BME280;41148;45.420;10.952;2024-02-16T02:02:53;101323.53;;;7.83;93.49
23427;BME280;41148;45.420;10.952;2024-02-16T02:05:21;101314.72;;;7.79;93.46
23427;BME280;41148;45.420;10.952;2024-02-16T02:07:48;101319.13;;;7.82;93.29
23427;BME280;41148;45.420;10.952;2024-02-16T02:10:16;101319.09;;;7.86;91.97
23427;BME280;41148;45.420;10.952;2024-02-16T02:12:43;101312.88;;;7.87;91.90
23427;BME280;41148;45.420;10.952;2024-02-16T02:15:11;101307.66;;;7.72;92.30
23427;BME280;41148;45.420;10.952;2024-02-16T02:17:39;101305.03;;;7.69;93.10
23427;BME280;41148;45.420;10.952;2024-02-16T02:20:06;101312.16;;;7.64;92.78
23427;BME280;41148;45.420;10.952;2024-02-16T02:22:38;101314.84;;;7.56;92.24
23427;BME280;41148;45.420;10.952;2024-02-16T02:25:06;101311.38;;;7.48;92.13
23427;BME280;41148;45.420;10.952;2024-02-16T02:27:33;101305.28;;;7.28;93.25
23427;BME280;41148;45.420;10.952;2024-02-16T02:30:00;101311.53;;;7.11;93.99
23427;BME280;41148;45.420;10.952;2024-02-16T02:32:28;101304.44;;;7.13;94.41
23427;BME280;41148;45.420;10.952;2024-02-16T02:34:55;101300.03;;;7.17;94.31
23427;BME280;41148;45.420;10.952;2024-02-16T02:37:23;101293.03;;;6.95;95.18
23427;BME280;41148;45.420;10.952;2024-02-16T02:39:50;101287.75;;;6.96;95.86
23427;BME280;41148;45.420;10.952;2024-02-16T02:42:17;101286.00;;;6.97;95.64
23427;BME280;41148;45.420;10.952;2024-02-16T02:44:45;101283.34;;;6.84;96.13
23427;BME280;41148;45.420;10.952;2024-02-16T02:47:17;101278.00;;;7.01;95.65
23427;BME280;41148;45.420;10.952;2024-02-16T02:49:44;101273.63;;;6.94;95.14
23427;BME280;41148;45.420;10.952;2024-02-16T02:52:11;101276.28;;;6.85;96.60
23427;BME280;41148;45.420;10.952;2024-02-16T02:54:39;101263.91;;;6.99;95.86
23427;BME280;41148;45.420;10.952;2024-02-16T02:57:06;101263.88;;;7.02;95.54
23427;BME280;41148;45.420;10.952;2024-02-16T02:59:34;101264.69;;;7.20;94.75
23427;BME280;41148;45.420;10.952;2024-02-16T03:02:01;101254.13;;;7.15;94.74
23427;BME280;41148;45.420;10.952;2024-02-16T03:04:28;101255.88;;;7.11;95.28
23427;BME280;41148;45.420;10.952;2024-02-16T03:06:56;101261.22;;;7.04;95.94
23427;BME280;41148;45.420;10.952;2024-02-16T03:09:23;101253.28;;;7.01;95.95
23427;BME280;41148;45.420;10.952;2024-02-16T03:11:50;101263.03;;;6.97;96.04
23427;BME280;41148;45.420;10.952;2024-02-16T03:14:18;101263.91;;;6.93;96.62
23427;BME280;41148;45.420;10.952;2024-02-16T03:16:45;101259.50;;;6.98;96.22
23427;BME280;41148;45.420;10.952;2024-02-16T03:19:12;101258.59;;;7.01;95.96
23427;BME280;41148;45.420;10.952;2024-02-16T03:21:40;101261.25;;;6.99;96.11
23427;BME280;41148;45.420;10.952;2024-02-16T03:24:07;101254.19;;;6.97;96.14
23427;BME280;41148;45.420;10.952;2024-02-16T03:26:35;101249.81;;;6.88;96.34
23427;BME280;41148;45.420;10.952;2024-02-16T03:29:03;101249.81;;;6.88;96.99
23427;BME280;41148;45.420;10.952;2024-02-16T03:31:30;101253.34;;;6.88;96.41
23427;BME280;41148;45.420;10.952;2024-02-16T03:33:57;101256.00;;;6.88;97.15
23427;BME280;41148;45.420;10.952;2024-02-16T03:36:25;101250.69;;;6.88;97.23
23427;BME280;41148;45.420;10.952;2024-02-16T03:38:52;101255.88;;;7.13;95.46
23427;BME280;41148;45.420;10.952;2024-02-16T03:41:21;101258.47;;;7.25;94.92
23427;BME280;41148;45.420;10.952;2024-02-16T03:43:49;101251.34;;;7.32;94.52
23427;BME280;41148;45.420;10.952;2024-02-16T03:46:16;101249.63;;;7.23;94.46
23427;BME280;41148;45.420;10.952;2024-02-16T03:48:43;101247.88;;;7.21;94.87
23427;BME280;41148;45.420;10.952;2024-02-16T03:51:12;101244.38;;;7.14;95.01
23427;BME280;41148;45.420;10.952;2024-02-16T03:53:39;101252.31;;;7.18;94.72
23427;BME280;41148;45.420;10.952;2024-02-16T03:56:06;101251.41;;;7.26;94.30
23427;BME280;41148;45.420;10.952;2024-02-16T03:58:35;101248.84;;;7.09;95.42
23427;BME280;41148;45.420;10.952;2024-02-16T04:01:03;101242.63;;;7.17;95.04
23427;BME280;41148;45.420;10.952;2024-02-16T04:03:30;101246.13;;;7.21;95.05
23427;BME280;41148;45.420;10.952;2024-02-16T04:05:59;101245.22;;;7.22;94.99
23427;BME280;41148;45.420;10.952;2024-02-16T04:08:27;101242.72;;;6.98;94.62
23427;BME280;41148;45.420;10.952;2024-02-16T04:10:54;101244.53;;;6.80;95.83
23427;BME280;41148;45.420;10.952;2024-02-16T04:13:21;101246.25;;;6.92;95.06
23427;BME280;41148;45.420;10.952;2024-02-16T04:15:48;101241.81;;;7.00;94.03
23427;BME280;41148;45.420;10.952;2024-02-16T04:18:21;101238.25;;;7.09;93.76
23427;BME280;41148;45.420;10.952;2024-02-16T04:20:48;101241.78;;;7.03;94.98
23427;BME280;41148;45.420;10.952;2024-02-16T04:23:16;101242.69;;;6.95;95.55
23427;BME280;41148;45.420;10.952;2024-02-16T04:25:43;101247.97;;;7.08;95.12
23427;BME280;41148;45.420;10.952;2024-02-16T04:28:10;101254.13;;;7.15;94.30
23427;BME280;41148;45.420;10.952;2024-02-16T04:30:37;101253.22;;;7.13;94.36
23427;BME280;41148;45.420;10.952;2024-02-16T04:33:05;101252.44;;;6.91;94.85
23427;BME280;41148;45.420;10.952;2024-02-16T04:35:32;101256.84;;;6.98;94.94
23427;BME280;41148;45.420;10.952;2024-02-16T04:38:00;101254.19;;;6.98;94.86
23427;BME280;41148;45.420;10.952;2024-02-16T04:40:27;101255.91;;;7.04;94.71
23427;BME280;41148;45.420;10.952;2024-02-16T04:42:55;101256.00;;;6.87;94.99
23427;BME280;41148;45.420;10.952;2024-02-16T04:45:22;101259.56;;;6.72;95.56
23427;BME280;41148;45.420;10.952;2024-02-16T04:47:49;101252.47;;;6.86;95.51
23427;BME280;41148;45.420;10.952;2024-02-16T04:50:16;101249.81;;;6.88;95.25
23427;BME280;41148;45.420;10.952;2024-02-16T04:52:44;101259.56;;;6.80;95.25
23427;BME280;41148;45.420;10.952;2024-02-16T04:55:11;101255.09;;;6.96;94.96
23427;BME280;41148;45.420;10.952;2024-02-16T04:57:38;101255.06;;;7.05;94.65
23427;BME280;41148;45.420;10.952;2024-02-16T05:00:06;101254.13;;;7.09;95.25
23427;BME280;41148;45.420;10.952;2024-02-16T05:02:34;101255.06;;;6.99;95.31
23427;BME280;41148;45.420;10.952;2024-02-16T05:05:01;101255.09;;;6.89;95.36
23427;BME280;41148;45.420;10.952;2024-02-16T05:07:30;101268.38;;;6.86;95.36
23427;BME280;41148;45.420;10.952;2024-02-16T05:10:03;101270.19;;;6.69;96.19
23427;BME280;41148;45.420;10.952;2024-02-16T05:12:30;101269.28;;;6.78;96.05
23427;BME280;41148;45.420;10.952;2024-02-16T05:14:58;101276.41;;;6.48;97.21
23427;BME280;41148;45.420;10.952;2024-02-16T05:17:26;101279.97;;;6.29;98.63
23427;BME280;41148;45.420;10.952;2024-02-16T05:19:53;101272.00;;;6.40;98.42
23427;BME280;41148;45.420;10.952;2024-02-16T05:22:21;101264.94;;;6.51;98.09
23427;BME280;41148;45.420;10.952;2024-02-16T05:24:51;101266.69;;;6.53;98.43
23427;BME280;41148;45.420;10.952;2024-02-16T05:27:18;101271.06;;;6.70;98.50
23427;BME280;41148;45.420;10.952;2024-02-16T05:29:46;101253.38;;;6.81;98.16
23427;BME280;41148;45.420;10.952;2024-02-16T05:32:13;101257.81;;;6.71;99.81
23427;BME280;41148;45.420;10.952;2024-02-16T05:34:40;101259.59;;;6.71;100.00
23427;BME280;41148;45.420;10.952;2024-02-16T05:37:12;101258.72;;;6.69;100.00
23427;BME280;41148;45.420;10.952;2024-02-16T05:39:42;101266.63;;;6.76;100.00
23427;BME280;41148;45.420;10.952;2024-02-16T05:42:24;101270.16;;;6.77;100.00
23427;BME280;41148;45.420;10.952;2024-02-16T05:44:51;101263.13;;;6.70;100.00
23427;BME280;41148;45.420;10.952;2024-02-16T05:47:19;101271.91;;;6.75;100.00
23427;BME280;41148;45.420;10.952;2024-02-16T05:49:46;101268.34;;;6.85;100.00
23427;BME280;41148;45.420;10.952;2024-02-16T05:52:14;101274.53;;;6.84;100.00
23427;BME280;41148;45.420;10.952;2024-02-16T05:54:45;101276.34;;;6.79;100.00
23427;BME280;41148;45.420;10.952;2024-02-16T05:57:12;101270.97;;;6.93;100.00
23427;BME280;41148;45.420;10.952;2024-02-16T05:59:40;101281.59;;;6.89;100.00
23427;BME280;41148;45.420;10.952;2024-02-16T06:02:08;101278.03;;;6.98;100.00
23427;BME280;41148;45.420;10.952;2024-02-16T06:04:38;101280.66;;;7.06;100.00
23427;BME280;41148;45.420;10.952;2024-02-16T06:07:06;101285.00;;;7.17;100.00
23427;BME280;41148;45.420;10.952;2024-02-16T06:09:34;101280.56;;;7.24;99.71
23427;BME280;41148;45.420;10.952;2024-02-16T06:12:03;101285.81;;;7.35;98.11
23427;BME280;41148;45.420;10.952;2024-02-16T06:14:31;101280.50;;;7.38;97.73
23427;BME280;41148;45.420;10.952;2024-02-16T06:16:58;101288.44;;;7.33;98.26
23427;BME280;41148;45.420;10.952;2024-02-16T06:19:26;101290.25;;;7.34;98.25
23427;BME280;41148;45.420;10.952;2024-02-16T06:21:54;101293.66;;;7.56;97.22
23427;BME280;41148;45.420;10.952;2024-02-16T06:24:22;101288.34;;;7.56;97.29
23427;BME280;41148;45.420;10.952;2024-02-16T06:26:50;101292.06;;;7.18;98.05
23427;BME280;41148;45.420;10.952;2024-02-16T06:29:23;101295.66;;;7.08;99.86
23427;BME280;41148;45.420;10.952;2024-02-16T06:31:51;101291.19;;;7.18;99.49
23427;BME280;41148;45.420;10.952;2024-02-16T06:34:19;101293.88;;;7.09;99.41
23427;BME280;41148;45.420;10.952;2024-02-16T06:36:47;101297.44;;;7.06;100.00
23427;BME280;41148;45.420;10.952;2024-02-16T06:39:15;101298.28;;;7.11;97.50
23427;BME280;41148;45.420;10.952;2024-02-16T06:41:44;101303.56;;;7.19;96.01
23427;BME280;41148;45.420;10.952;2024-02-16T06:44:16;101312.44;;;7.07;96.11
23427;BME280;41148;45.420;10.952;2024-02-16T06:46:47;101316.00;;;7.05;96.23
23427;BME280;41148;45.420;10.952;2024-02-16T06:49:15;101312.41;;;7.10;96.08
23427;BME280;41148;45.420;10.952;2024-02-16T06:51:42;101319.50;;;7.02;95.66
23427;BME280;41148;45.420;10.952;2024-02-16T06:54:12;101319.50;;;7.01;96.32
23427;BME280;41148;45.420;10.952;2024-02-16T06:56:39;101316.88;;;6.95;96.88
23427;BME280;41148;45.420;10.952;2024-02-16T06:59:06;101323.06;;;6.94;97.38
23427;BME280;41148;45.420;10.952;2024-02-16T07:01:33;101319.53;;;6.92;97.83
23427;BME280;41148;45.420;10.952;2024-02-16T07:04:01;101323.97;;;6.97;98.41
23427;BME280;41148;45.420;10.952;2024-02-16T07:06:29;101325.69;;;7.01;99.29
23427;BME280;41148;45.420;10.952;2024-02-16T07:08:56;101327.47;;;6.95;98.62
23427;BME280;41148;45.420;10.952;2024-02-16T07:11:23;101329.19;;;7.11;97.70
23427;BME280;41148;45.420;10.952;2024-02-16T07:13:51;101325.66;;;7.18;97.85
23427;BME280;41148;45.420;10.952;2024-02-16T07:16:18;101321.19;;;7.29;97.25
23427;BME280;41148;45.420;10.952;2024-02-16T07:18:46;101322.88;;;7.42;96.30
23427;BME280;41148;45.420;10.952;2024-02-16T07:21:13;101326.41;;;7.41;96.34
23427;BME280;41148;45.420;10.952;2024-02-16T07:23:40;101329.91;;;7.50;96.38
23427;BME280;41148;45.420;10.952;2024-02-16T07:26:07;101333.47;;;7.45;96.42
23427;BME280;41148;45.420;10.952;2024-02-16T07:28:35;101336.94;;;7.58;96.41
23427;BME280;41148;45.420;10.952;2024-02-16T07:31:02;101332.47;;;7.62;96.92
23427;BME280;41148;45.420;10.952;2024-02-16T07:33:30;101337.75;;;7.69;96.85
23427;BME280;41148;45.420;10.952;2024-02-16T07:35:58;101339.47;;;7.83;96.21
23427;BME280;41148;45.420;10.952;2024-02-16T07:38:25;101334.94;;;7.97;95.75
23427;BME280;41148;45.420;10.952;2024-02-16T07:40:52;101339.31;;;8.02;95.77
23427;BME280;41148;45.420;10.952;2024-02-16T07:43:19;101340.13;;;8.12;95.34
23427;BME280;41148;45.420;10.952;2024-02-16T07:45:48;101340.06;;;8.23;95.50
23427;BME280;41148;45.420;10.952;2024-02-16T07:48:16;101339.91;;;8.43;94.71
23427;BME280;41148;45.420;10.952;2024-02-16T07:50:44;101343.41;;;8.48;94.80
23427;BME280;41148;45.420;10.952;2024-02-16T07:53:11;101352.19;;;8.54;94.54
23427;BME280;41148;45.420;10.952;2024-02-16T07:55:39;101351.22;;;8.65;95.11
23427;BME280;41148;45.420;10.952;2024-02-16T07:58:06;101348.50;;;8.72;93.69
23427;BME280;41148;45.420;10.952;2024-02-16T08:00:33;101345.69;;;8.84;93.12
23427;BME280;41148;45.420;10.952;2024-02-16T08:03:00;101350.91;;;8.98;92.08
23427;BME280;41148;45.420;10.952;2024-02-16T08:05:29;101346.34;;;9.08;92.12
23427;BME280;41148;45.420;10.952;2024-02-16T08:07:56;101353.34;;;9.15;91.60
23427;BME280;41148;45.420;10.952;2024-02-16T08:10:24;101359.53;;;9.18;90.87
23427;BME280;41148;45.420;10.952;2024-02-16T08:12:52;101351.16;;;9.49;90.35
23427;BME280;41148;45.420;10.952;2024-02-16T08:15:20;101352.19;;;9.37;90.44
23427;BME280;41148;45.420;10.952;2024-02-16T08:17:51;101357.41;;;9.46;90.25
23427;BME280;41148;45.420;10.952;2024-02-16T08:20:19;101357.03;;;9.72;88.81
23427;BME280;41148;45.420;10.952;2024-02-16T08:22:48;101357.75;;;9.87;87.16
23427;BME280;41148;45.420;10.952;2024-02-16T08:25:15;101358.16;;;10.73;83.84
23427;BME280;41148;45.420;10.952;2024-02-16T08:27:42;101350.13;;;12.76;72.82
23427;BME280;41148;45.420;10.952;2024-02-16T08:30:10;101346.06;;;14.69;63.76
23427;BME280;41148;45.420;10.952;2024-02-16T08:32:38;101344.78;;;15.04;60.67
23427;BME280;41148;45.420;10.952;2024-02-16T08:38:07;101348.72;;;16.35;54.63
23427;BME280;41148;45.420;10.952;2024-02-16T08:40:38;101358.66;;;16.54;53.22
23427;BME280;41148;45.420;10.952;2024-02-16T08:43:05;101356.78;;;17.19;51.05
23427;BME280;41148;45.420;10.952;2024-02-16T08:45:34;101351.50;;;16.96;51.64
23427;BME280;41148;45.420;10.952;2024-02-16T08:48:01;101350.50;;;16.98;51.25
23427;BME280;41148;45.420;10.952;2024-02-16T08:50:31;101351.56;;;17.35;50.46
23427;BME280;41148;45.420;10.952;2024-02-16T08:52:58;101353.16;;;16.79;51.09
23427;BME280;41148;45.420;10.952;2024-02-16T08:55:25;101358.53;;;16.79;51.19
23427;BME280;41148;45.420;10.952;2024-02-16T08:57:53;101357.56;;;17.21;50.46
23427;BME280;41148;45.420;10.952;2024-02-16T09:00:20;101358.56;;;18.16;48.13
23427;BME280;41148;45.420;10.952;2024-02-16T09:02:47;101360.19;;;17.62;48.51
23427;BME280;41148;45.420;10.952;2024-02-16T09:05:15;101361.75;;;16.87;50.73
23427;BME280;41148;45.420;10.952;2024-02-16T09:07:42;101365.84;;;16.76;51.23
23427;BME280;41148;45.420;10.952;2024-02-16T09:10:09;101366.41;;;15.96;53.51
23427;BME280;41148;45.420;10.952;2024-02-16T09:12:36;101365.16;;;15.83;54.07
23427;BME280;41148;45.420;10.952;2024-02-16T09:15:04;101367.78;;;15.60;55.12
23427;BME280;41148;45.420;10.952;2024-02-16T09:17:33;101371.34;;;15.12;57.69
23427;BME280;41148;45.420;10.952;2024-02-16T09:20:00;101374.50;;;14.47;59.70
23427;BME280;41148;45.420;10.952;2024-02-16T09:22:30;101379.00;;;13.59;63.48
23427;BME280;41148;45.420;10.952;2024-02-16T09:25:00;101375.88;;;13.11;65.45
23427;BME280;41148;45.420;10.952;2024-02-16T09:27:28;101374.91;;;12.81;66.40
23427;BME280;41148;45.420;10.952;2024-02-16T09:29:56;101371.38;;;12.45;68.37
23427;BME280;41148;45.420;10.952;2024-02-16T09:32:23;101370.59;;;12.41;69.17
23427;BME280;41148;45.420;10.952;2024-02-16T09:34:50;101367.41;;;12.25;69.04
23427;BME280;41148;45.420;10.952;2024-02-16T09:37:18;101373.84;;;12.18;69.67
23427;BME280;41148;45.420;10.952;2024-02-16T09:39:46;101377.00;;;12.34;69.99
23427;BME280;41148;45.420;10.952;2024-02-16T09:42:13;101372.38;;;12.03;69.92
23427;BME280;41148;45.420;10.952;2024-02-16T09:44:41;101376.34;;;11.87;71.45
23427;BME280;41148;45.420;10.952;2024-02-16T09:47:09;101376.72;;;11.67;72.45
23427;BME280;41148;45.420;10.952;2024-02-16T09:49:39;101376.56;;;11.75;72.50
23427;BME280;41148;45.420;10.952;2024-02-16T09:52:10;101380.16;;;11.72;72.79
23427;BME280;41148;45.420;10.952;2024-02-16T09:54:39;101372.97;;;11.76;72.46
23427;BME280;41148;45.420;10.952;2024-02-16T09:57:06;101370.38;;;11.73;73.12
23427;BME280;41148;45.420;10.952;2024-02-16T09:59:34;101366.50;;;11.89;72.29
23427;BME280;41148;45.420;10.952;2024-02-16T10:02:03;101367.53;;;11.82;73.79
23427;BME280;41148;45.420;10.952;2024-02-16T10:04:31;101371.25;;;11.73;75.33
23427;BME280;41148;45.420;10.952;2024-02-16T10:07:03;101371.44;;;11.64;76.03
23427;BME280;41148;45.420;10.952;2024-02-16T10:09:38;101376.56;;;11.75;76.20
23427;BME280;41148;45.420;10.952;2024-02-16T10:12:07;101376.63;;;11.72;76.75
23427;BME280;41148;45.420;10.952;2024-02-16T10:14:35;101381.00;;;11.74;76.46
23427;BME280;41148;45.420;10.952;2024-02-16T10:17:03;101380.25;;;11.69;76.65
23427;BME280;41148;45.420;10.952;2024-02-16T10:19:30;101378.69;;;11.58;77.13
23427;BME280;41148;45.420;10.952;2024-02-16T10:22:14;101383.56;;;11.39;77.71
23427;BME280;41148;45.420;10.952;2024-02-16T10:24:43;101380.78;;;11.43;77.75
23427;BME280;41148;45.420;10.952;2024-02-16T10:27:14;101380.84;;;11.40;79.22
23427;BME280;41148;45.420;10.952;2024-02-16T10:29:44;101379.84;;;11.46;80.36
23427;BME280;41148;45.420;10.952;2024-02-16T10:32:16;101380.53;;;11.56;80.85
23427;BME280;41148;45.420;10.952;2024-02-16T10:34:44;101380.47;;;11.57;80.24
23427;BME280;41148;45.420;10.952;2024-02-16T10:37:12;101374.03;;;11.69;78.42
23427;BME280;41148;45.420;10.952;2024-02-16T10:39:40;101379.28;;;11.72;78.72
23427;BME280;41148;45.420;10.952;2024-02-16T10:42:08;101377.25;;;11.85;78.67
23427;BME280;41148;45.420;10.952;2024-02-16T10:44:36;101379.25;;;11.73;78.73
23427;BME280;41148;45.420;10.952;2024-02-16T10:47:04;101374.72;;;11.79;77.77
23427;BME280;41148;45.420;10.952;2024-02-16T10:49:32;101369.38;;;11.80;78.03
23427;BME280;41148;45.420;10.952;2024-02-16T10:51:59;101368.28;;;11.89;77.49
23427;BME280;41148;45.420;10.952;2024-02-16T10:54:28;101375.31;;;11.93;76.91
23427;BME280;41148;45.420;10.952;2024-02-16T10:56:57;101370.97;;;11.89;77.24
23427;BME280;41148;45.420;10.952;2024-02-16T10:59:24;101355.59;;;11.98;77.63
23427;BME280;41148;45.420;10.952;2024-02-16T11:01:59;101362.75;;;11.98;77.48
23427;BME280;41148;45.420;10.952;2024-02-16T11:04:35;101363.78;;;11.91;77.58
23427;BME280;41148;45.420;10.952;2024-02-16T11:07:09;101363.78;;;11.91;78.61
23427;BME280;41148;45.420;10.952;2024-02-16T11:09:38;101363.78;;;11.91;78.30
23427;BME280;41148;45.420;10.952;2024-02-16T11:12:06;101361.19;;;11.88;78.26
23427;BME280;41148;45.420;10.952;2024-02-16T11:19:46;101352.31;;;11.86;77.64
23427;BME280;41148;45.420;10.952;2024-02-16T11:22:17;101354.91;;;11.90;77.78
23427;BME280;41148;45.420;10.952;2024-02-16T11:24:47;101350.31;;;11.95;77.25
23427;BME280;41148;45.420;10.952;2024-02-16T11:27:15;101349.16;;;12.07;76.83
23427;BME280;41148;45.420;10.952;2024-02-16T11:29:46;101346.59;;;12.02;77.36
23427;BME280;41148;45.420;10.952;2024-02-16T11:32:14;101337.66;;;12.03;77.40
23427;BME280;41148;45.420;10.952;2024-02-16T11:34:41;101338.72;;;11.98;77.00
23427;BME280;41148;45.420;10.952;2024-02-16T11:37:09;101336.44;;;12.18;76.05
23427;BME280;41148;45.420;10.952;2024-02-16T11:39:36;101332.97;;;12.13;76.66
23427;BME280;41148;45.420;10.952;2024-02-16T11:42:08;101333.72;;;12.20;75.16
23427;BME280;41148;45.420;10.952;2024-02-16T11:44:39;101320.63;;;12.09;75.56
23427;BME280;41148;45.420;10.952;2024-02-16T11:47:07;101322.25;;;12.16;74.13
23427;BME280;41148;45.420;10.952;2024-02-16T11:49:39;101317.88;;;12.12;73.20
23427;BME280;41148;45.420;10.952;2024-02-16T11:52:07;101318.66;;;12.16;74.30
23427;BME280;41148;45.420;10.952;2024-02-16T11:54:34;101310.31;;;12.29;73.97
23427;BME280;41148;45.420;10.952;2024-02-16T11:57:04;101319.22;;;12.30;72.85
23427;BME280;41148;45.420;10.952;2024-02-16T11:59:31;101309.63;;;12.21;72.73
23427;BME280;41148;45.420;10.952;2024-02-16T12:01:59;101303.81;;;12.40;73.31
23427;BME280;41148;45.420;10.952;2024-02-16T12:04:26;101305.97;;;12.59;72.43
23427;BME280;41148;45.420;10.952;2024-02-16T12:06:57;101304.09;;;12.63;71.64
23427;BME280;41148;45.420;10.952;2024-02-16T12:09:30;101297.75;;;12.67;72.18
23427;BME280;41148;45.420;10.952;2024-02-16T12:12:02;101295.63;;;12.47;70.56
23427;BME280;41148;45.420;10.952;2024-02-16T12:14:30;101294.16;;;12.36;70.14
23427;BME280;41148;45.420;10.952;2024-02-16T12:16:57;101297.88;;;12.28;71.30
23427;BME280;41148;45.420;10.952;2024-02-16T12:19:25;101297.69;;;12.36;70.33
23427;BME280;41148;45.420;10.952;2024-02-16T12:21:53;101292.53;;;12.63;69.00
23427;BME280;41148;45.420;10.952;2024-02-16T12:24:21;101297.56;;;12.73;67.16
23427;BME280;41148;45.420;10.952;2024-02-16T12:26:49;101296.69;;;12.74;67.58
23427;BME280;41148;45.420;10.952;2024-02-16T12:29:16;101290.44;;;12.74;68.46
23427;BME280;41148;45.420;10.952;2024-02-16T12:31:44;101295.66;;;12.78;69.57
23427;BME280;41148;45.420;10.952;2024-02-16T12:34:11;101292.22;;;12.75;69.79
23427;BME280;41148;45.420;10.952;2024-02-16T12:36:40;101283.44;;;12.70;69.83
23427;BME280;41148;45.420;10.952;2024-02-16T12:39:13;101281.28;;;12.84;69.81
23427;BME280;41148;45.420;10.952;2024-02-16T12:41:42;101278.66;;;12.81;70.88
23427;BME280;41148;45.420;10.952;2024-02-16T12:44:11;101279.47;;;12.83;71.40
23427;BME280;41148;45.420;10.952;2024-02-16T12:46:38;101276.78;;;12.84;70.49
23427;BME280;41148;45.420;10.952;2024-02-16T12:49:06;101270.34;;;12.92;69.15
23427;BME280;41148;45.420;10.952;2024-02-16T12:51:34;101270.47;;;12.87;69.88
23427;BME280;41148;45.420;10.952;2024-02-16T12:54:02;101272.69;;;13.02;69.42
23427;BME280;41148;45.420;10.952;2024-02-16T12:56:32;101263.78;;;13.03;70.23
23427;BME280;41148;45.420;10.952;2024-02-16T12:58:59;101261.13;;;13.02;68.78